Time;durP1;ratioP1;P1;durP2;ratioP2;P2;SDS_P1;SDS_P2;PMS_P1;PMS_P2;Temp;Humidity;BMP_temperature;BMP_pressure;BME280_temperature;BME280_humidity;BME280_pressure;Samples;Min_cycle;Max_cycle;Signal;HPM_P1;HPM_P2
2022/01/04 00:02:08;;;;;;;34.72;14.23;;;7.20;99.90;;;;;;4969582;28;20071;-57
2022/01/04 00:04:33;;;;;;;38.20;14.77;;;7.20;99.90;;;;;;4972207;28;20050;-57
2022/01/04 00:06:59;;;;;;;35.45;14.75;;;7.20;99.90;;;;;;4972462;28;20046;-57
2022/01/04 00:09:25;;;;;;;40.88;14.60;;;7.20;99.90;;;;;;4971960;28;20130;-57
2022/01/04 00:14:17;;;;;;;34.50;15.10;;;7.20;99.90;;;;;;4969885;28;20055;-57
2022/01/04 00:16:42;;;;;;;41.58;14.65;;;7.20;99.90;;;;;;4971990;28;20049;-57
2022/01/04 00:19:08;;;;;;;30.20;13.90;;;7.20;99.90;;;;;;4972289;28;20035;-57
2022/01/04 00:21:35;;;;;;;32.78;14.35;;;7.20;99.90;;;;;;4972399;28;20472;-57
2022/01/04 00:24:01;;;;;;;40.70;14.75;;;7.10;99.90;;;;;;4971971;28;20050;-57
2022/01/04 00:26:27;;;;;;;39.83;13.98;;;7.10;99.90;;;;;;4972003;28;20070;-57
2022/01/04 00:28:53;;;;;;;38.67;14.07;;;7.10;99.90;;;;;;4971728;28;20038;-57
2022/01/04 00:31:18;;;;;;;45.22;14.35;;;7.10;99.90;;;;;;4971773;28;20049;-57
2022/01/04 00:33:44;;;;;;;41.28;14.48;;;7.10;99.90;;;;;;4972029;28;20030;-56
2022/01/04 00:36:10;;;;;;;42.55;13.85;;;7.10;99.90;;;;;;4972038;28;20035;-57
2022/01/04 00:38:36;;;;;;;37.13;13.98;;;7.10;99.90;;;;;;4971951;28;20396;-57
2022/01/04 00:41:01;;;;;;;33.25;14.05;;;7.10;99.90;;;;;;4971593;28;20109;-58
2022/01/04 00:43:27;;;;;;;38.72;15.00;;;7.10;99.90;;;;;;4972109;28;20039;-57
2022/01/04 00:45:53;;;;;;;37.90;15.60;;;7.10;99.90;;;;;;4972045;28;20046;-57
2022/01/04 00:50:45;;;;;;;38.88;15.23;;;7.10;99.90;;;;;;4970331;28;20047;-57
2022/01/04 00:53:11;;;;;;;45.03;16.52;;;7.10;99.90;;;;;;4971683;28;20043;-57
2022/01/04 00:55:38;;;;;;;44.80;17.02;;;7.10;99.90;;;;;;4975781;28;20398;-58
2022/01/04 00:58:05;;;;;;;44.35;17.27;;;7.10;99.90;;;;;;4975436;28;20035;-56
2022/01/04 01:00:30;;;;;;;36.67;15.80;;;7.20;99.90;;;;;;4975617;28;20057;-57
2022/01/04 01:02:56;;;;;;;39.95;17.33;;;7.20;99.90;;;;;;4975242;28;20491;-57
2022/01/04 01:05:26;;;;;;;51.20;18.42;;;7.20;99.90;;;;;;4974252;28;20053;-56
2022/01/04 01:07:53;;;;;;;47.92;17.50;;;7.20;99.90;;;;;;4974120;28;20039;-57
2022/01/04 01:12:47;;;;;;;43.38;18.75;;;7.20;99.90;;;;;;4974952;28;20050;-57
2022/01/04 01:15:13;;;;;;;47.75;18.25;;;7.20;99.90;;;;;;4975056;28;20562;-57
2022/01/04 01:17:39;;;;;;;47.95;19.25;;;7.20;99.90;;;;;;4974977;28;20047;-57
2022/01/04 01:20:07;;;;;;;48.85;19.63;;;7.20;99.90;;;;;;4975151;28;20081;-57
2022/01/04 01:22:33;;;;;;;48.33;19.58;;;7.20;99.90;;;;;;4975181;28;20125;-57
2022/01/04 01:24:59;;;;;;;47.22;19.38;;;7.20;99.90;;;;;;4975070;28;20039;-57
2022/01/04 01:27:25;;;;;;;45.78;20.17;;;7.20;99.90;;;;;;4975052;28;20483;-57
2022/01/04 01:29:50;;;;;;;49.85;19.95;;;7.10;99.90;;;;;;4974523;28;20520;-56
2022/01/04 01:32:16;;;;;;;56.83;19.08;;;7.10;99.90;;;;;;4974878;28;20078;-56
2022/01/04 01:34:42;;;;;;;60.15;19.88;;;7.10;99.90;;;;;;4974671;28;20475;-56
2022/01/04 01:37:09;;;;;;;43.97;18.42;;;7.10;99.90;;;;;;4974615;28;20038;-56
2022/01/04 01:39:35;;;;;;;46.50;19.27;;;7.10;99.90;;;;;;4974693;28;20047;-57
2022/01/04 01:42:01;;;;;;;50.85;20.23;;;7.10;99.90;;;;;;4974391;28;20101;-56
2022/01/04 01:44:29;;;;;;;51.97;20.48;;;7.10;99.90;;;;;;4974767;28;20479;-56
2022/01/04 01:46:54;;;;;;;49.05;21.00;;;7.20;99.90;;;;;;4974712;28;20035;-57
2022/01/04 01:49:20;;;;;;;54.92;20.75;;;7.20;99.90;;;;;;4974314;28;20047;-57
2022/01/04 01:51:46;;;;;;;53.65;21.58;;;7.10;99.90;;;;;;4973752;28;20027;-57
2022/01/04 01:54:12;;;;;;;50.60;20.63;;;7.20;99.90;;;;;;4974374;28;20082;-57
2022/01/04 01:56:38;;;;;;;47.55;20.35;;;7.10;99.90;;;;;;4974611;28;20043;-56
2022/01/04 01:59:04;;;;;;;53.53;21.60;;;7.10;99.90;;;;;;4974522;28;20533;-58
2022/01/04 02:01:29;;;;;;;59.80;21.52;;;7.20;99.90;;;;;;4974120;28;20410;-57
2022/01/04 02:03:55;;;;;;;54.80;21.83;;;7.20;99.90;;;;;;4974539;28;20513;-56
2022/01/04 02:06:22;;;;;;;52.92;21.13;;;7.20;99.90;;;;;;4974129;28;20039;-56
2022/01/04 02:08:47;;;;;;;58.83;21.08;;;7.20;99.90;;;;;;4974353;28;20062;-57
2022/01/04 02:11:13;;;;;;;60.95;22.33;;;7.30;99.90;;;;;;4973493;28;20097;-57
2022/01/04 02:13:39;;;;;;;50.60;22.65;;;7.30;99.90;;;;;;4974367;28;20046;-56
2022/01/04 02:16:08;;;;;;;53.63;21.52;;;7.30;99.90;;;;;;4973560;28;20515;-56
2022/01/04 02:18:33;;;;;;;54.58;22.20;;;7.30;99.90;;;;;;4974173;28;20038;-57
2022/01/04 02:20:59;;;;;;;53.92;22.60;;;7.30;99.90;;;;;;4974159;28;20046;-56
2022/01/04 02:23:25;;;;;;;50.30;22.42;;;7.40;99.90;;;;;;4974140;28;20071;-56
2022/01/04 02:25:50;;;;;;;47.42;20.45;;;7.40;99.90;;;;;;4974029;28;20166;-56
2022/01/04 02:28:20;;;;;;;49.35;21.52;;;7.40;99.90;;;;;;4974047;28;20041;-56
2022/01/04 02:30:47;;;;;;;55.55;21.30;;;7.40;99.90;;;;;;4973739;28;20047;-57
2022/01/04 02:33:14;;;;;;;54.55;20.75;;;7.40;99.90;;;;;;4973913;28;20510;-57
2022/01/04 02:35:39;;;;;;;45.88;20.83;;;7.40;99.90;;;;;;4973917;28;20422;-56
2022/01/04 02:38:05;;;;;;;55.33;21.63;;;7.40;99.90;;;;;;4973740;28;20090;-56
2022/01/04 02:40:31;;;;;;;43.47;19.90;;;7.40;99.90;;;;;;4963116;28;20470;-57
2022/01/04 02:42:57;;;;;;;49.45;19.67;;;7.40;99.90;;;;;;4954933;28;20112;-57
2022/01/04 02:45:23;;;;;;;53.95;21.27;;;7.50;99.90;;;;;;4954155;28;20487;-57
2022/01/04 02:47:49;;;;;;;49.08;19.70;;;7.50;99.90;;;;;;4954382;28;20039;-57
2022/01/04 02:50:15;;;;;;;58.13;22.10;;;7.40;99.90;;;;;;4954867;28;20053;-57
2022/01/04 02:52:40;;;;;;;54.67;21.20;;;7.50;99.90;;;;;;4954112;28;20416;-56
2022/01/04 02:55:09;;;;;;;51.45;20.23;;;7.50;99.90;;;;;;4954211;28;20046;-57
2022/01/04 02:57:35;;;;;;;44.22;21.27;;;7.50;99.90;;;;;;4954124;28;20050;-57
2022/01/04 03:00:01;;;;;;;57.53;20.98;;;7.50;99.90;;;;;;4954189;28;20070;-56
2022/01/04 03:02:27;;;;;;;52.50;21.25;;;7.50;99.90;;;;;;4954809;28;20530;-56
2022/01/04 03:04:53;;;;;;;44.05;20.05;;;7.50;99.90;;;;;;4953833;28;20039;-56
2022/01/04 03:07:19;;;;;;;52.95;21.05;;;7.50;99.90;;;;;;4954073;28;20399;-56
2022/01/04 03:09:44;;;;;;;46.53;21.10;;;7.60;99.90;;;;;;4953612;28;20035;-56
2022/01/04 03:12:10;;;;;;;45.80;20.00;;;7.60;99.90;;;;;;4953642;28;20031;-56
2022/01/04 03:14:36;;;;;;;53.03;20.48;;;7.60;99.90;;;;;;4953275;28;20068;-56
2022/01/04 03:17:03;;;;;;;50.35;21.55;;;7.60;99.90;;;;;;4953343;28;20051;-56
2022/01/04 03:19:29;;;;;;;51.33;21.33;;;7.60;99.90;;;;;;4953766;28;20054;-57
2022/01/04 03:21:55;;;;;;;48.75;20.85;;;7.60;99.90;;;;;;4953839;28;20430;-56
2022/01/04 03:24:21;;;;;;;48.10;20.17;;;7.60;99.90;;;;;;4953377;28;20043;-57
2022/01/04 03:26:47;;;;;;;44.78;21.02;;;7.60;99.90;;;;;;4939734;28;20455;-56
2022/01/04 03:29:15;;;;;;;54.42;20.50;;;7.60;99.90;;;;;;4972707;28;20363;-57
2022/01/04 03:31:42;;;;;;;44.30;20.55;;;7.70;99.90;;;;;;4972754;28;20570;-57
2022/01/04 03:34:09;;;;;;;45.95;20.45;;;7.70;99.90;;;;;;4972439;28;20069;-57
2022/01/04 03:36:35;;;;;;;43.42;20.70;;;7.70;99.90;;;;;;4972725;28;20043;-57
2022/01/04 03:39:05;;;;;;;43.63;20.48;;;7.70;99.90;;;;;;4972732;28;20058;-57
2022/01/04 03:41:39;;;;;;;43.05;18.77;;;7.70;99.90;;;;;;4972083;28;20071;-57
2022/01/04 03:44:06;;;;;;;51.47;21.35;;;7.70;99.90;;;;;;4972693;28;20473;-57
2022/01/04 03:46:32;;;;;;;39.67;20.20;;;7.70;99.90;;;;;;4972676;28;20051;-57
2022/01/04 03:49:00;;;;;;;44.75;19.15;;;7.70;99.90;;;;;;4972536;28;20051;-58
2022/01/04 03:51:26;;;;;;;46.65;20.23;;;7.70;99.90;;;;;;4972586;28;20486;-57
2022/01/04 03:53:52;;;;;;;45.08;20.27;;;7.70;99.90;;;;;;4972455;28;20035;-57
2022/01/04 03:56:17;;;;;;;45.40;20.27;;;7.70;99.90;;;;;;4972562;28;20038;-57
2022/01/04 03:58:43;;;;;;;49.88;21.15;;;7.80;99.90;;;;;;4972530;28;20116;-57
2022/01/04 04:01:09;;;;;;;44.70;21.20;;;7.70;99.90;;;;;;4972470;28;20042;-56
2022/01/04 04:03:35;;;;;;;45.85;20.58;;;7.60;99.90;;;;;;4972419;28;20070;-56
2022/01/04 04:06:01;;;;;;;47.30;20.80;;;7.70;99.90;;;;;;4972300;28;20094;-57
2022/01/04 04:08:26;;;;;;;44.05;20.95;;;7.70;99.90;;;;;;4971988;28;20454;-57
2022/01/04 04:10:52;;;;;;;47.00;20.30;;;7.70;99.90;;;;;;4971901;28;20074;-56
2022/01/04 04:13:18;;;;;;;37.53;19.25;;;7.70;99.90;;;;;;4971505;28;20093;-54
2022/01/04 04:15:44;;;;;;;44.15;18.85;;;7.70;99.90;;;;;;4969667;28;20055;-57
2022/01/04 04:18:10;;;;;;;35.80;17.15;;;7.80;99.90;;;;;;4972338;28;20035;-57
2022/01/04 04:20:38;;;;;;;39.08;18.15;;;7.70;99.90;;;;;;4954580;28;20054;-55
2022/01/04 04:23:05;;;;;;;40.60;18.50;;;7.70;99.90;;;;;;4971875;28;20069;-57
2022/01/04 04:25:31;;;;;;;38.75;18.45;;;7.70;99.90;;;;;;4972029;28;20039;-57
2022/01/04 04:27:57;;;;;;;39.30;18.50;;;7.70;99.90;;;;;;4973448;28;20479;-56
2022/01/04 04:30:23;;;;;;;41.88;19.25;;;7.70;99.90;;;;;;4958894;28;20038;-57
2022/01/04 04:32:49;;;;;;;42.75;21.08;;;7.70;99.90;;;;;;4976016;28;20077;-57
2022/01/04 04:35:15;;;;;;;45.92;21.65;;;7.60;99.90;;;;;;4975757;28;20062;-57
2022/01/04 04:37:41;;;;;;;42.28;21.58;;;7.70;99.90;;;;;;4976062;28;20034;-57
2022/01/04 04:40:07;;;;;;;50.25;21.73;;;7.70;99.90;;;;;;4976010;28;20038;-57
2022/01/04 04:42:33;;;;;;;49.45;22.27;;;7.70;99.90;;;;;;4975584;28;20101;-57
2022/01/04 04:44:59;;;;;;;44.72;22.58;;;7.70;99.90;;;;;;4974251;28;20081;-58
2022/01/04 04:47:24;;;;;;;57.75;24.00;;;7.70;99.90;;;;;;4975816;28;20039;-57
2022/01/04 04:49:50;;;;;;;42.67;22.23;;;7.80;99.90;;;;;;4975387;28;20509;-58
2022/01/04 04:52:16;;;;;;;55.05;22.60;;;7.80;99.90;;;;;;4975492;28;20441;-57
2022/01/04 04:54:42;;;;;;;46.45;21.60;;;7.80;99.90;;;;;;4975510;28;20046;-57
2022/01/04 04:57:07;;;;;;;47.17;22.13;;;7.70;99.90;;;;;;4975462;28;20042;-57
2022/01/04 04:59:33;;;;;;;45.25;21.30;;;7.80;99.90;;;;;;4975957;28;20512;-58
2022/01/04 05:01:59;;;;;;;47.92;22.60;;;7.70;99.90;;;;;;4975500;28;20038;-57
2022/01/04 05:04:25;;;;;;;43.70;20.85;;;7.70;99.90;;;;;;4975337;28;20046;-57
2022/01/04 05:06:51;;;;;;;49.55;23.45;;;7.70;99.90;;;;;;4957887;28;20046;-57
2022/01/04 05:09:16;;;;;;;44.00;22.40;;;7.80;99.90;;;;;;4975243;28;20368;-58
2022/01/04 05:11:42;;;;;;;45.80;21.55;;;7.70;99.90;;;;;;4975062;28;20039;-58
2022/01/04 05:14:08;;;;;;;47.60;21.98;;;7.80;99.90;;;;;;4974356;28;20031;-57
2022/01/04 05:16:33;;;;;;;41.65;21.88;;;7.70;99.90;;;;;;4972867;28;20509;-57
2022/01/04 05:18:59;;;;;;;42.95;22.30;;;7.70;99.90;;;;;;4975247;28;20039;-58
2022/01/04 05:21:24;;;;;;;46.60;22.90;;;7.90;99.90;;;;;;4975104;28;20073;-57
2022/01/04 05:23:52;;;;;;;46.13;22.58;;;7.80;99.90;;;;;;4974716;28;20074;-57
2022/01/04 05:26:18;;;;;;;42.17;21.67;;;7.70;99.90;;;;;;4975232;28;20093;-58
2022/01/04 05:28:45;;;;;;;50.05;22.33;;;7.70;99.90;;;;;;4975083;28;20042;-58
2022/01/04 05:31:14;;;;;;;41.72;21.73;;;7.70;99.90;;;;;;4975111;28;20057;-57
2022/01/04 05:33:41;;;;;;;46.22;22.50;;;7.70;99.90;;;;;;4975168;28;20038;-58
2022/01/04 05:36:06;;;;;;;42.40;22.27;;;7.70;99.90;;;;;;4974698;28;20058;-57
2022/01/04 05:38:32;;;;;;;42.28;23.00;;;7.70;99.90;;;;;;4974959;28;20470;-57
2022/01/04 05:40:59;;;;;;;45.03;23.50;;;7.70;99.90;;;;;;4974352;28;20506;-57
2022/01/04 05:43:24;;;;;;;45.17;23.98;;;7.70;99.90;;;;;;4974181;28;20050;-57
2022/01/04 05:45:50;;;;;;;47.80;23.40;;;7.60;99.90;;;;;;4974966;28;20031;-57
2022/01/04 05:48:18;;;;;;;42.83;22.98;;;7.70;99.90;;;;;;4957371;28;20045;-58
2022/01/04 05:50:44;;;;;;;50.67;24.13;;;7.60;99.90;;;;;;4974679;28;20054;-57
2022/01/04 05:53:09;;;;;;;47.10;24.02;;;7.70;99.90;;;;;;4974363;28;20146;-57
2022/01/04 05:55:35;;;;;;;54.30;25.20;;;7.60;99.90;;;;;;4974643;28;20235;-57
2022/01/04 05:58:01;;;;;;;53.35;24.60;;;7.60;99.90;;;;;;4974783;28;20043;-57
2022/01/04 06:00:27;;;;;;;53.33;25.30;;;7.60;99.90;;;;;;4974655;28;20038;-57
2022/01/04 06:02:53;;;;;;;54.13;25.98;;;7.60;99.90;;;;;;4974266;28;20512;-57
2022/01/04 06:05:18;;;;;;;49.60;25.45;;;7.60;99.90;;;;;;4974274;28;20386;-57
2022/01/04 06:07:44;;;;;;;49.55;26.00;;;7.60;99.90;;;;;;4974375;28;20038;-57
2022/01/04 06:10:11;;;;;;;52.70;25.67;;;7.50;99.90;;;;;;4974020;28;20062;-57
2022/01/04 06:15:08;;;;;;;52.00;25.63;;;7.50;99.90;;;;;;4974044;28;20137;-57
2022/01/04 06:17:42;;;;;;;50.88;25.90;;;7.50;99.90;;;;;;4974367;28;20376;-57
2022/01/04 06:20:14;;;;;;;59.78;27.10;;;7.50;99.90;;;;;;4973795;28;20042;-57
2022/01/04 06:22:40;;;;;;;54.42;27.80;;;7.50;99.90;;;;;;4974204;28;20039;-56
2022/01/04 06:25:09;;;;;;;60.38;27.83;;;7.50;99.90;;;;;;4973768;28;20042;-57
2022/01/04 06:27:35;;;;;;;56.22;27.73;;;7.50;99.90;;;;;;4973873;28;21266;-57
2022/01/04 06:30:01;;;;;;;54.45;27.75;;;7.50;99.90;;;;;;4973764;28;20043;-57
2022/01/04 06:32:27;;;;;;;57.33;27.40;;;7.50;99.90;;;;;;4974053;28;20031;-57
2022/01/04 06:34:53;;;;;;;56.22;28.52;;;7.50;99.90;;;;;;4973958;28;20043;-56
2022/01/04 06:37:19;;;;;;;55.58;28.40;;;7.50;99.90;;;;;;4973913;28;20097;-57
2022/01/04 06:39:45;;;;;;;55.75;27.20;;;7.50;99.90;;;;;;4973491;28;20486;-56
2022/01/04 06:42:12;;;;;;;55.75;28.00;;;7.50;99.90;;;;;;4973472;28;20406;-57
2022/01/04 06:44:38;;;;;;;59.35;27.10;;;7.50;99.90;;;;;;4973677;28;20038;-57
2022/01/04 06:47:04;;;;;;;52.22;27.35;;;7.50;99.90;;;;;;4973725;28;20081;-57
2022/01/04 06:49:30;;;;;;;54.35;27.90;;;7.50;99.90;;;;;;4973507;28;20050;-57
2022/01/04 06:51:56;;;;;;;60.75;27.67;;;7.50;99.90;;;;;;4972704;28;20378;-57
2022/01/04 06:54:22;;;;;;;48.15;25.95;;;7.50;99.90;;;;;;4973406;28;20045;-57
2022/01/04 06:56:49;;;;;;;56.60;27.35;;;7.60;99.90;;;;;;4973391;28;20045;-57
2022/01/04 06:59:15;;;;;;;63.53;27.77;;;7.60;99.90;;;;;;4973098;28;20027;-57
2022/01/04 07:01:41;;;;;;;61.67;27.77;;;7.60;99.90;;;;;;4973482;28;20046;-57
2022/01/04 07:04:07;;;;;;;55.08;28.00;;;7.60;99.90;;;;;;4973358;28;20506;-57
2022/01/04 07:06:34;;;;;;;59.33;28.13;;;7.60;99.90;;;;;;4973504;28;20038;-57
2022/01/04 07:09:00;;;;;;;56.75;26.42;;;7.60;99.90;;;;;;4973126;28;20042;-57
2022/01/04 07:11:26;;;;;;;55.13;26.88;;;7.60;99.90;;;;;;4973268;28;20045;-57
2022/01/04 07:13:51;;;;;;;58.72;27.80;;;7.60;99.90;;;;;;4972928;28;20126;-56
2022/01/04 07:16:17;;;;;;;54.55;26.92;;;7.60;99.90;;;;;;4972841;28;20051;-57
2022/01/04 07:18:48;;;;;;;52.05;26.40;;;7.60;99.90;;;;;;4972966;28;20082;-56
2022/01/04 07:21:16;;;;;;;55.22;27.73;;;7.70;99.90;;;;;;4973058;28;20038;-57
2022/01/04 07:23:42;;;;;;;47.03;26.38;;;7.60;99.90;;;;;;4972394;28;20039;-56
2022/01/04 07:26:14;;;;;;;56.42;27.35;;;7.60;99.90;;;;;;4972661;28;20046;-57
2022/01/04 07:28:40;;;;;;;52.17;26.35;;;7.60;99.90;;;;;;4972557;28;20047;-56
2022/01/04 07:31:07;;;;;;;51.78;25.75;;;7.60;99.90;;;;;;4972714;28;20046;-57
2022/01/04 07:33:32;;;;;;;52.60;27.48;;;7.60;99.90;;;;;;4972713;28;20050;-56
2022/01/04 07:35:58;;;;;;;53.33;26.40;;;7.60;99.90;;;;;;4972904;28;20162;-56
2022/01/04 07:38:24;;;;;;;53.15;26.80;;;7.60;99.90;;;;;;4972755;28;20057;-56
2022/01/04 07:40:49;;;;;;;49.05;25.33;;;7.60;99.90;;;;;;4972782;28;20070;-57
2022/01/04 07:43:15;;;;;;;53.95;25.42;;;7.60;99.90;;;;;;4972047;28;20569;-56
2022/01/04 07:45:41;;;;;;;50.65;27.05;;;7.60;99.90;;;;;;4972392;28;20078;-56
2022/01/04 07:48:10;;;;;;;42.97;23.17;;;7.60;99.90;;;;;;4972755;28;20047;-56
2022/01/04 07:50:38;;;;;;;51.28;25.02;;;7.60;99.90;;;;;;4972306;28;20043;-57
2022/01/04 07:53:04;;;;;;;52.65;25.65;;;7.60;99.90;;;;;;4972319;28;20101;-57
2022/01/04 07:55:30;;;;;;;46.47;23.40;;;7.60;99.90;;;;;;4972313;28;20120;-57
2022/01/04 07:57:56;;;;;;;47.15;25.45;;;7.60;99.90;;;;;;4972482;28;20119;-56
2022/01/04 08:00:22;;;;;;;45.92;23.75;;;7.60;99.90;;;;;;4972376;28;20046;-56
2022/01/04 08:02:47;;;;;;;52.38;24.38;;;7.50;99.90;;;;;;4972142;28;20081;-56
2022/01/04 08:05:13;;;;;;;53.97;24.27;;;7.60;99.90;;;;;;4972285;28;20035;-57
2022/01/04 08:07:39;;;;;;;49.88;23.10;;;7.60;99.90;;;;;;4971905;28;20118;-56
2022/01/04 08:10:05;;;;;;;49.97;23.80;;;7.50;99.90;;;;;;4972269;28;20074;-57
2022/01/04 08:12:31;;;;;;;51.20;23.95;;;7.50;99.90;;;;;;4971857;28;20042;-57
2022/01/04 08:14:57;;;;;;;47.53;24.05;;;7.50;99.90;;;;;;4972123;28;20501;-56
2022/01/04 08:17:23;;;;;;;51.50;25.08;;;7.60;99.90;;;;;;4972323;28;20077;-57
2022/01/04 08:19:51;;;;;;;50.97;24.38;;;7.50;99.90;;;;;;4972368;28;20050;-57
2022/01/04 08:22:17;;;;;;;49.38;24.60;;;7.50;99.90;;;;;;4972326;28;20047;-57
2022/01/04 08:24:43;;;;;;;52.88;25.65;;;7.50;99.90;;;;;;4972147;28;20122;-57
2022/01/04 08:27:09;;;;;;;49.83;24.80;;;7.50;99.90;;;;;;4971946;28;20519;-57
2022/01/04 08:29:35;;;;;;;51.45;25.23;;;7.50;99.90;;;;;;4971620;28;20061;-57
2022/01/04 08:32:01;;;;;;;54.65;25.25;;;7.40;99.90;;;;;;4972185;28;20049;-57
2022/01/04 08:34:26;;;;;;;51.35;25.70;;;7.50;99.90;;;;;;4972084;28;20042;-57
2022/01/04 08:36:52;;;;;;;58.20;26.77;;;7.50;99.90;;;;;;4972233;28;20045;-57
2022/01/04 08:39:20;;;;;;;52.58;26.15;;;7.50;99.90;;;;;;4958759;28;20391;-57
2022/01/04 08:41:46;;;;;;;58.83;27.45;;;7.50;99.90;;;;;;4964257;28;20035;-57
2022/01/04 08:44:12;;;;;;;66.65;29.75;;;7.50;99.90;;;;;;4954026;28;20047;-57
2022/01/04 08:46:39;;;;;;;61.78;28.25;;;7.70;99.90;;;;;;4954718;28;20166;-57
2022/01/04 08:49:07;;;;;;;67.05;29.15;;;7.50;99.90;;;;;;4956102;28;20035;-57
2022/01/04 08:51:34;;;;;;;64.43;29.27;;;7.60;99.90;;;;;;4953451;28;20372;-57
2022/01/04 08:54:00;;;;;;;59.60;29.50;;;7.50;99.90;;;;;;4953944;28;20046;-57
2022/01/04 08:56:26;;;;;;;62.35;29.60;;;7.50;99.90;;;;;;4953742;28;20383;-57
2022/01/04 08:58:53;;;;;;;66.78;29.00;;;7.60;99.90;;;;;;4953698;28;20034;-56
2022/01/04 09:01:18;;;;;;;69.53;30.30;;;7.60;99.90;;;;;;4958633;28;20047;-57
2022/01/04 09:03:44;;;;;;;65.75;29.98;;;7.70;99.90;;;;;;4958419;28;20043;-57
2022/01/04 09:06:11;;;;;;;66.57;30.02;;;7.60;99.90;;;;;;4955793;28;20033;-57
2022/01/04 09:08:37;;;;;;;72.40;31.98;;;7.60;99.90;;;;;;4953321;28;20455;-56
2022/01/04 09:11:03;;;;;;;73.03;32.58;;;7.60;99.90;;;;;;4955695;28;20892;-56
2022/01/04 09:13:37;;;;;;;49.47;21.38;;;7.60;99.90;;;;;;4954473;28;20034;-57
2022/01/04 09:18:43;;;;;;;18.60;8.63;;;8.30;99.90;;;;;;4958368;28;20050;-57
2022/01/04 09:21:10;;;;;;;12.55;4.78;;;7.20;99.90;;;;;;4959632;28;20043;-58
2022/01/04 09:23:37;;;;;;;12.93;2.67;;;7.00;99.90;;;;;;4959386;28;20046;-56
2022/01/04 09:26:03;;;;;;;10.30;2.60;;;6.90;99.90;;;;;;4937098;28;20035;-58
2022/01/04 09:28:29;;;;;;;8.00;1.83;;;6.80;99.90;;;;;;4957406;28;20129;-57
2022/01/04 09:30:55;;;;;;;7.45;1.67;;;6.80;99.90;;;;;;4958629;28;20075;-57
2022/01/04 09:33:21;;;;;;;6.30;1.35;;;6.70;99.90;;;;;;4958394;28;20047;-58
2022/01/04 09:35:49;;;;;;;7.65;1.40;;;6.70;99.90;;;;;;4958491;28;20394;-58
2022/01/04 09:38:16;;;;;;;6.15;1.30;;;6.80;99.90;;;;;;4958596;28;20039;-57
2022/01/04 09:40:42;;;;;;;5.70;1.85;;;6.60;99.90;;;;;;4955451;28;21371;-57
2022/01/04 09:43:08;;;;;;;6.00;2.10;;;6.60;99.90;;;;;;4958426;28;20051;-57
2022/01/04 09:45:34;;;;;;;7.88;3.13;;;6.60;99.90;;;;;;4958262;28;20054;-58
2022/01/04 09:48:01;;;;;;;14.15;4.88;;;6.70;99.90;;;;;;4958995;28;20045;-58
2022/01/04 09:50:27;;;;;;;13.07;5.25;;;6.70;99.90;;;;;;4957035;28;20048;-58
2022/01/04 09:52:55;;;;;;;14.38;6.28;;;6.80;99.90;;;;;;4960291;28;20038;-58
2022/01/04 09:55:21;;;;;;;17.30;6.38;;;6.80;99.90;;;;;;4955077;28;20121;-57
2022/01/04 09:57:47;;;;;;;14.05;6.80;;;7.00;99.90;;;;;;4958794;28;20128;-57
2022/01/04 10:00:15;;;;;;;16.35;6.90;;;6.80;99.90;;;;;;4955990;28;20039;-57
2022/01/04 10:02:42;;;;;;;16.50;7.57;;;6.90;99.90;;;;;;4941181;28;20038;-57
2022/01/04 10:05:16;;;;;;;14.40;7.53;;;6.90;99.90;;;;;;4957493;28;21153;-57
2022/01/04 10:07:42;;;;;;;20.00;8.63;;;7.00;99.90;;;;;;4958437;28;20057;-57
2022/01/04 10:10:17;;;;;;;22.77;8.30;;;7.00;99.90;;;;;;4956445;28;20550;-57
2022/01/04 10:12:56;;;;;;;27.70;9.10;;;7.10;99.90;;;;;;4939873;28;20089;-58
2022/01/04 10:15:48;;;;;;;31.55;9.43;;;7.10;99.90;;;;;;4955252;28;20136;-58
2022/01/04 10:18:14;;;;;;;26.05;9.15;;;7.10;99.90;;;;;;4945209;28;20418;-58
2022/01/04 10:21:12;;;;;;;24.40;8.93;;;7.20;99.90;;;;;;4958398;28;20050;-57
2022/01/04 10:23:54;;;;;;;27.63;8.90;;;7.30;99.90;;;;;;4956330;28;20423;-57
2022/01/04 10:26:32;;;;;;;24.33;9.10;;;7.30;99.90;;;;;;4941144;28;20479;-58
2022/01/04 10:28:57;;;;;;;29.88;8.82;;;7.30;99.90;;;;;;4957822;28;20118;-58
2022/01/04 10:31:23;;;;;;;24.98;8.20;;;7.30;99.90;;;;;;4957937;28;20194;-58
2022/01/04 10:33:55;;;;;;;25.80;8.02;;;7.30;99.90;;;;;;4955102;28;20502;-58
2022/01/04 10:36:21;;;;;;;21.85;5.97;;;7.40;99.90;;;;;;4957543;28;20035;-58
2022/01/04 10:38:48;;;;;;;20.10;5.75;;;7.40;99.90;;;;;;4956466;28;20150;-58
2022/01/04 10:41:21;;;;;;;23.48;6.05;;;7.40;99.90;;;;;;4956647;28;20525;-58
2022/01/04 10:43:52;;;;;;;13.45;3.92;;;7.30;99.90;;;;;;4955805;28;20053;-57
2022/01/04 10:46:36;;;;;;;12.13;3.38;;;7.30;99.90;;;;;;4957681;28;20440;-57
2022/01/04 10:49:19;;;;;;;9.68;2.88;;;7.20;99.90;;;;;;4957083;28;20134;-57
2022/01/04 10:52:02;;;;;;;11.55;2.80;;;7.10;99.90;;;;;;4956651;28;20503;-57
2022/01/04 10:54:28;;;;;;;9.25;2.58;;;7.00;99.90;;;;;;4955829;28;20165;-57
2022/01/04 10:57:07;;;;;;;10.40;3.03;;;7.00;99.90;;;;;;4955102;28;20056;-56
2022/01/04 10:59:33;;;;;;;13.48;3.15;;;6.90;99.90;;;;;;4954677;28;20035;-57
2022/01/04 11:01:59;;;;;;;12.55;3.17;;;6.90;99.90;;;;;;4953780;28;20061;-58
2022/01/04 11:04:24;;;;;;;12.18;3.00;;;6.90;99.90;;;;;;4934294;28;20039;-58
2022/01/04 11:06:58;;;;;;;11.63;2.53;;;6.80;99.90;;;;;;4955986;28;20467;-58
2022/01/04 11:09:23;;;;;;;11.65;2.47;;;6.90;99.90;;;;;;4953959;28;20489;-57
2022/01/04 11:11:49;;;;;;;6.85;2.45;;;6.80;99.90;;;;;;4955623;28;20043;-57
2022/01/04 11:14:15;;;;;;;15.20;2.60;;;6.80;99.90;;;;;;4956050;28;20594;-57
2022/01/04 11:16:42;;;;;;;11.73;2.50;;;6.70;99.90;;;;;;4956525;28;20075;-56
2022/01/04 11:19:08;;;;;;;9.38;2.42;;;6.70;99.90;;;;;;4957212;28;20041;-56
2022/01/04 11:21:41;;;;;;;11.15;2.83;;;6.70;99.90;;;;;;4954712;28;20510;-57
2022/01/04 11:24:12;;;;;;;9.38;3.05;;;6.70;99.90;;;;;;4958164;28;20066;-57
2022/01/04 11:26:44;;;;;;;12.23;4.03;;;6.70;99.90;;;;;;4954090;28;20034;-57
2022/01/04 11:29:10;;;;;;;9.02;2.67;;;6.70;99.90;;;;;;4953362;28;20461;-57
2022/01/04 11:31:59;;;;;;;9.95;3.05;;;6.70;99.90;;;;;;4955945;28;20127;-57
2022/01/04 11:34:43;;;;;;;8.65;2.80;;;6.60;99.90;;;;;;4956936;28;20066;-57
2022/01/04 11:37:20;;;;;;;14.82;2.85;;;6.60;99.90;;;;;;4961814;28;20383;-59
2022/01/04 11:39:46;;;;;;;10.45;2.30;;;6.60;99.90;;;;;;4965337;28;20367;-58
2022/01/04 11:42:31;;;;;;;9.00;2.40;;;6.50;99.90;;;;;;4957081;28;20066;-57
2022/01/04 11:44:59;;;;;;;8.75;1.35;;;6.40;99.90;;;;;;4952770;28;20849;-57
2022/01/04 11:47:31;;;;;;;3.60;1.02;;;6.30;99.90;;;;;;4958272;28;20078;-58
2022/01/04 11:50:20;;;;;;;3.60;0.85;;;6.10;99.90;;;;;;4962485;28;20038;-58
2022/01/04 11:52:49;;;;;;;3.53;0.77;;;6.00;99.90;;;;;;4956931;28;20050;-58
2022/01/04 11:55:31;;;;;;;3.42;0.60;;;5.90;99.90;;;;;;4971697;28;20031;-58
2022/01/04 11:58:20;;;;;;;4.07;0.52;;;5.90;99.90;;;;;;4955799;28;20042;-58
2022/01/04 12:01:00;;;;;;;2.80;0.63;;;5.80;99.90;;;;;;4957055;28;20041;-58
2022/01/04 12:03:49;;;;;;;3.53;0.70;;;5.80;99.90;;;;;;4960376;28;20063;-58
2022/01/04 12:06:17;;;;;;;5.38;0.93;;;5.80;99.90;;;;;;4947950;28;20080;-58
2022/01/04 12:08:51;;;;;;;7.65;1.00;;;5.80;99.90;;;;;;4959511;28;20101;-59
2022/01/04 12:11:25;;;;;;;8.57;1.10;;;5.80;99.90;;;;;;4955580;28;20042;-59
2022/01/04 12:13:52;;;;;;;1.80;0.55;;;6.20;99.90;;;;;;4960386;28;20134;-59
2022/01/04 12:16:30;;;;;;;3.20;0.55;;;5.80;99.90;;;;;;4961266;28;20500;-59
2022/01/04 12:18:57;;;;;;;2.97;0.60;;;5.70;99.90;;;;;;4960435;28;20050;-59
2022/01/04 12:21:26;;;;;;;4.55;0.55;;;5.70;99.90;;;;;;4959650;28;20480;-59
2022/01/04 12:23:53;;;;;;;3.60;0.60;;;5.70;99.90;;;;;;4960140;28;20572;-58
2022/01/04 12:26:20;;;;;;;5.20;0.60;;;5.60;99.90;;;;;;4959715;28;20039;-59
2022/01/04 12:29:05;;;;;;;8.43;1.30;;;5.60;99.90;;;;;;4959482;28;20383;-58
2022/01/04 12:31:34;;;;;;;5.60;0.60;;;5.70;99.90;;;;;;4958802;28;20103;-59
2022/01/04 12:34:03;;;;;;;6.10;1.02;;;5.70;99.90;;;;;;4958531;28;20038;-59
2022/01/04 12:36:38;;;;;;;4.43;0.80;;;5.70;99.90;;;;;;4953098;28;20495;-58
2022/01/04 12:39:03;;;;;;;4.22;0.65;;;5.60;99.90;;;;;;4958519;28;20045;-56
2022/01/04 12:41:33;;;;;;;7.53;0.93;;;5.60;99.90;;;;;;4956186;28;20062;-57
2022/01/04 12:43:59;;;;;;;5.25;0.90;;;5.60;99.90;;;;;;4956865;28;20050;-56
2022/01/04 12:46:26;;;;;;;6.05;0.90;;;5.60;99.90;;;;;;4959598;28;20047;-57
2022/01/04 12:48:59;;;;;;;4.13;0.80;;;5.60;99.90;;;;;;4960045;28;20112;-59
2022/01/04 12:51:32;;;;;;;3.92;0.80;;;5.60;99.90;;;;;;4962476;28;20058;-58
2022/01/04 12:54:03;;;;;;;7.22;0.95;;;5.60;99.90;;;;;;4963533;28;20085;-58
2022/01/04 12:56:29;;;;;;;9.45;1.10;;;5.60;99.90;;;;;;4960301;28;20031;-58